sensor_id;sensor_type;location;lat;lon;timestamp;P1;durP1;ratioP1;P2;durP2;ratioP2
12603;SDS011;6367;52.508;13.284;2023-10-08T00:02:27;2.00;;;1.40;;
12603;SDS011;6367;52.508;13.284;2023-10-08T00:04:53;4.63;;;1.97;;
12603;SDS011;6367;52.508;13.284;2023-10-08T00:07:22;2.50;;;1.50;;
12603;SDS011;6367;52.508;13.284;2023-10-08T00:09:53;1.93;;;1.33;;
12603;SDS011;6367;52.508;13.284;2023-10-08T00:12:19;3.70;;;1.30;;
12603;SDS011;6367;52.508;13.284;2023-10-08T00:14:46;2.50;;;1.57;;
12603;SDS011;6367;52.508;13.284;2023-10-08T00:17:14;4.40;;;1.87;;
12603;SDS011;6367;52.508;13.284;2023-10-08T00:19:41;3.00;;;1.60;;
12603;SDS011;6367;52.508;13.284;2023-10-08T00:22:08;2.57;;;1.37;;
12603;SDS011;6367;52.508;13.284;2023-10-08T00:24:35;2.07;;;1.20;;
12603;SDS011;6367;52.508;13.284;2023-10-08T00:27:03;1.40;;;1.10;;
12603;SDS011;6367;52.508;13.284;2023-10-08T00:29:31;3.60;;;1.83;;
12603;SDS011;6367;52.508;13.284;2023-10-08T00:31:57;3.53;;;1.40;;
12603;SDS011;6367;52.508;13.284;2023-10-08T00:34:23;2.10;;;1.43;;
12603;SDS011;6367;52.508;13.284;2023-10-08T00:36:50;8.43;;;2.23;;
12603;SDS011;6367;52.508;13.284;2023-10-08T00:39:17;6.27;;;1.97;;
12603;SDS011;6367;52.508;13.284;2023-10-08T00:41:58;4.63;;;2.50;;
12603;SDS011;6367;52.508;13.284;2023-10-08T00:44:24;4.00;;;1.87;;
12603;SDS011;6367;52.508;13.284;2023-10-08T00:46:55;5.10;;;1.90;;
12603;SDS011;6367;52.508;13.284;2023-10-08T00:49:26;2.00;;;1.50;;
12603;SDS011;6367;52.508;13.284;2023-10-08T00:52:04;3.87;;;2.13;;
12603;SDS011;6367;52.508;13.284;2023-10-08T00:54:33;3.63;;;1.63;;
12603;SDS011;6367;52.508;13.284;2023-10-08T00:57:11;5.33;;;2.00;;
12603;SDS011;6367;52.508;13.284;2023-10-08T00:59:45;1.77;;;1.63;;
12603;SDS011;6367;52.508;13.284;2023-10-08T01:02:17;3.27;;;1.67;;
12603;SDS011;6367;52.508;13.284;2023-10-08T01:04:46;4.60;;;2.07;;
12603;SDS011;6367;52.508;13.284;2023-10-08T01:07:12;3.63;;;1.80;;
12603;SDS011;6367;52.508;13.284;2023-10-08T01:09:43;4.53;;;1.93;;
12603;SDS011;6367;52.508;13.284;2023-10-08T01:12:19;3.60;;;1.90;;
12603;SDS011;6367;52.508;13.284;2023-10-08T01:14:55;3.00;;;1.50;;
12603;SDS011;6367;52.508;13.284;2023-10-08T01:17:32;6.57;;;1.70;;
12603;SDS011;6367;52.508;13.284;2023-10-08T01:20:07;5.33;;;1.90;;
12603;SDS011;6367;52.508;13.284;2023-10-08T01:22:52;4.50;;;1.90;;
12603;SDS011;6367;52.508;13.284;2023-10-08T01:25:18;3.80;;;1.60;;
12603;SDS011;6367;52.508;13.284;2023-10-08T01:27:49;5.67;;;2.23;;
12603;SDS011;6367;52.508;13.284;2023-10-08T01:30:20;4.57;;;1.80;;
12603;SDS011;6367;52.508;13.284;2023-10-08T01:32:46;4.77;;;2.03;;
12603;SDS011;6367;52.508;13.284;2023-10-08T01:35:12;8.37;;;2.20;;
12603;SDS011;6367;52.508;13.284;2023-10-08T01:37:50;3.20;;;2.83;;
12603;SDS011;6367;52.508;13.284;2023-10-08T01:40:18;5.10;;;2.80;;
12603;SDS011;6367;52.508;13.284;2023-10-08T01:42:44;2.53;;;2.33;;
12603;SDS011;6367;52.508;13.284;2023-10-08T01:45:11;3.00;;;2.10;;
12603;SDS011;6367;52.508;13.284;2023-10-08T01:47:38;3.07;;;2.33;;
12603;SDS011;6367;52.508;13.284;2023-10-08T01:50:04;7.30;;;2.93;;
12603;SDS011;6367;52.508;13.284;2023-10-08T01:52:36;4.90;;;2.47;;
12603;SDS011;6367;52.508;13.284;2023-10-08T01:55:05;6.93;;;3.30;;
12603;SDS011;6367;52.508;13.284;2023-10-08T01:57:35;3.90;;;2.50;;
12603;SDS011;6367;52.508;13.284;2023-10-08T02:00:02;5.03;;;2.30;;
12603;SDS011;6367;52.508;13.284;2023-10-08T02:02:32;5.40;;;2.77;;
12603;SDS011;6367;52.508;13.284;2023-10-08T02:04:58;5.00;;;2.07;;
12603;SDS011;6367;52.508;13.284;2023-10-08T02:07:24;6.20;;;2.90;;
12603;SDS011;6367;52.508;13.284;2023-10-08T02:09:50;6.70;;;3.00;;
12603;SDS011;6367;52.508;13.284;2023-10-08T02:12:16;5.63;;;2.60;;
12603;SDS011;6367;52.508;13.284;2023-10-08T02:14:41;7.70;;;3.97;;
12603;SDS011;6367;52.508;13.284;2023-10-08T02:17:07;8.50;;;4.20;;
12603;SDS011;6367;52.508;13.284;2023-10-08T02:19:34;5.40;;;3.23;;
12603;SDS011;6367;52.508;13.284;2023-10-08T02:22:02;9.00;;;3.60;;
12603;SDS011;6367;52.508;13.284;2023-10-08T02:24:34;5.90;;;3.57;;
12603;SDS011;6367;52.508;13.284;2023-10-08T02:27:00;5.67;;;2.80;;
12603;SDS011;6367;52.508;13.284;2023-10-08T02:29:27;3.90;;;3.40;;
12603;SDS011;6367;52.508;13.284;2023-10-08T02:31:54;9.63;;;3.70;;
12603;SDS011;6367;52.508;13.284;2023-10-08T02:34:24;4.97;;;3.43;;
12603;SDS011;6367;52.508;13.284;2023-10-08T02:36:50;5.43;;;3.33;;
12603;SDS011;6367;52.508;13.284;2023-10-08T02:39:16;5.00;;;3.40;;
12603;SDS011;6367;52.508;13.284;2023-10-08T02:41:46;6.80;;;3.30;;
12603;SDS011;6367;52.508;13.284;2023-10-08T02:44:13;7.10;;;3.93;;
12603;SDS011;6367;52.508;13.284;2023-10-08T02:46:41;6.07;;;3.50;;
12603;SDS011;6367;52.508;13.284;2023-10-08T02:49:11;5.97;;;3.43;;
12603;SDS011;6367;52.508;13.284;2023-10-08T02:51:38;5.40;;;3.10;;
12603;SDS011;6367;52.508;13.284;2023-10-08T02:54:06;8.77;;;3.10;;
12603;SDS011;6367;52.508;13.284;2023-10-08T02:56:33;7.03;;;3.20;;
12603;SDS011;6367;52.508;13.284;2023-10-08T02:58:59;5.50;;;3.00;;
12603;SDS011;6367;52.508;13.284;2023-10-08T03:01:28;6.10;;;3.50;;
12603;SDS011;6367;52.508;13.284;2023-10-08T03:03:58;7.00;;;3.53;;
12603;SDS011;6367;52.508;13.284;2023-10-08T03:06:29;6.57;;;3.50;;
12603;SDS011;6367;52.508;13.284;2023-10-08T03:08:57;6.73;;;3.43;;
12603;SDS011;6367;52.508;13.284;2023-10-08T03:11:29;6.10;;;3.07;;
12603;SDS011;6367;52.508;13.284;2023-10-08T03:13:56;6.30;;;3.20;;
12603;SDS011;6367;52.508;13.284;2023-10-08T03:16:22;9.37;;;4.27;;
12603;SDS011;6367;52.508;13.284;2023-10-08T03:18:53;6.13;;;3.20;;
12603;SDS011;6367;52.508;13.284;2023-10-08T03:21:22;6.77;;;3.30;;
12603;SDS011;6367;52.508;13.284;2023-10-08T03:24:07;7.57;;;3.80;;
12603;SDS011;6367;52.508;13.284;2023-10-08T03:26:54;9.40;;;3.50;;
12603;SDS011;6367;52.508;13.284;2023-10-08T03:29:30;9.03;;;3.97;;
12603;SDS011;6367;52.508;13.284;2023-10-08T03:31:56;8.07;;;3.07;;
12603;SDS011;6367;52.508;13.284;2023-10-08T03:34:22;5.73;;;3.00;;
12603;SDS011;6367;52.508;13.284;2023-10-08T03:36:53;6.37;;;3.00;;
12603;SDS011;6367;52.508;13.284;2023-10-08T03:39:25;9.47;;;3.60;;
12603;SDS011;6367;52.508;13.284;2023-10-08T03:42:10;5.20;;;2.93;;
12603;SDS011;6367;52.508;13.284;2023-10-08T03:44:38;9.10;;;3.70;;
12603;SDS011;6367;52.508;13.284;2023-10-08T03:47:07;6.13;;;3.50;;
12603;SDS011;6367;52.508;13.284;2023-10-08T03:49:36;9.40;;;2.77;;
12603;SDS011;6367;52.508;13.284;2023-10-08T03:52:09;5.87;;;3.37;;
12603;SDS011;6367;52.508;13.284;2023-10-08T03:54:35;8.50;;;3.03;;
12603;SDS011;6367;52.508;13.284;2023-10-08T03:57:07;9.53;;;3.03;;
12603;SDS011;6367;52.508;13.284;2023-10-08T03:59:43;6.73;;;3.33;;
12603;SDS011;6367;52.508;13.284;2023-10-08T04:02:13;5.67;;;3.40;;
12603;SDS011;6367;52.508;13.284;2023-10-08T04:04:42;6.10;;;3.23;;
12603;SDS011;6367;52.508;13.284;2023-10-08T04:07:21;8.40;;;3.63;;
12603;SDS011;6367;52.508;13.284;2023-10-08T04:09:57;6.20;;;3.23;;
12603;SDS011;6367;52.508;13.284;2023-10-08T04:12:33;7.63;;;3.40;;
12603;SDS011;6367;52.508;13.284;2023-10-08T04:15:03;8.83;;;2.87;;
12603;SDS011;6367;52.508;13.284;2023-10-08T04:17:35;10.83;;;3.37;;
12603;SDS011;6367;52.508;13.284;2023-10-08T04:20:09;8.43;;;2.93;;
12603;SDS011;6367;52.508;13.284;2023-10-08T04:23:02;10.30;;;3.30;;
12603;SDS011;6367;52.508;13.284;2023-10-08T04:25:29;6.87;;;3.30;;
12603;SDS011;6367;52.508;13.284;2023-10-08T04:27:59;9.50;;;3.50;;
12603;SDS011;6367;52.508;13.284;2023-10-08T04:30:26;5.37;;;3.20;;
12603;SDS011;6367;52.508;13.284;2023-10-08T04:33:00;6.00;;;2.73;;
12603;SDS011;6367;52.508;13.284;2023-10-08T04:35:42;8.70;;;3.43;;
12603;SDS011;6367;52.508;13.284;2023-10-08T04:38:23;7.83;;;3.17;;
12603;SDS011;6367;52.508;13.284;2023-10-08T04:40:53;7.90;;;3.33;;
12603;SDS011;6367;52.508;13.284;2023-10-08T04:43:20;5.70;;;2.67;;
12603;SDS011;6367;52.508;13.284;2023-10-08T04:45:58;9.10;;;3.10;;
12603;SDS011;6367;52.508;13.284;2023-10-08T04:48:44;6.80;;;3.30;;
12603;SDS011;6367;52.508;13.284;2023-10-08T04:51:14;7.17;;;4.10;;
12603;SDS011;6367;52.508;13.284;2023-10-08T04:53:40;7.07;;;2.70;;
12603;SDS011;6367;52.508;13.284;2023-10-08T04:56:10;7.83;;;3.57;;
12603;SDS011;6367;52.508;13.284;2023-10-08T04:58:43;9.63;;;4.17;;
12603;SDS011;6367;52.508;13.284;2023-10-08T05:01:16;6.27;;;3.50;;
12603;SDS011;6367;52.508;13.284;2023-10-08T05:03:44;6.30;;;3.77;;
12603;SDS011;6367;52.508;13.284;2023-10-08T05:06:21;6.47;;;3.33;;
12603;SDS011;6367;52.508;13.284;2023-10-08T05:09:09;7.30;;;3.07;;
12603;SDS011;6367;52.508;13.284;2023-10-08T05:11:45;8.20;;;3.40;;
12603;SDS011;6367;52.508;13.284;2023-10-08T05:14:31;6.60;;;3.23;;
12603;SDS011;6367;52.508;13.284;2023-10-08T05:17:00;5.10;;;2.80;;
12603;SDS011;6367;52.508;13.284;2023-10-08T05:19:37;7.73;;;3.23;;
12603;SDS011;6367;52.508;13.284;2023-10-08T05:22:07;9.63;;;3.30;;
12603;SDS011;6367;52.508;13.284;2023-10-08T05:24:46;5.23;;;2.97;;
12603;SDS011;6367;52.508;13.284;2023-10-08T05:27:34;11.33;;;4.00;;
12603;SDS011;6367;52.508;13.284;2023-10-08T05:32:53;7.70;;;3.07;;
12603;SDS011;6367;52.508;13.284;2023-10-08T05:35:28;6.93;;;3.77;;
12603;SDS011;6367;52.508;13.284;2023-10-08T05:38:06;5.23;;;3.00;;
12603;SDS011;6367;52.508;13.284;2023-10-08T05:40:43;5.63;;;2.53;;
12603;SDS011;6367;52.508;13.284;2023-10-08T05:43:26;8.07;;;3.13;;
12603;SDS011;6367;52.508;13.284;2023-10-08T05:46:14;4.63;;;3.50;;
12603;SDS011;6367;52.508;13.284;2023-10-08T05:49:04;7.47;;;3.23;;
12603;SDS011;6367;52.508;13.284;2023-10-08T05:51:35;8.73;;;3.20;;
12603;SDS011;6367;52.508;13.284;2023-10-08T05:54:21;6.50;;;3.30;;
12603;SDS011;6367;52.508;13.284;2023-10-08T05:57:03;5.80;;;3.70;;
12603;SDS011;6367;52.508;13.284;2023-10-08T05:59:43;4.73;;;3.03;;
12603;SDS011;6367;52.508;13.284;2023-10-08T06:02:31;11.73;;;4.00;;
12603;SDS011;6367;52.508;13.284;2023-10-08T06:04:57;7.70;;;3.70;;
12603;SDS011;6367;52.508;13.284;2023-10-08T06:07:40;7.13;;;3.47;;
12603;SDS011;6367;52.508;13.284;2023-10-08T06:10:21;7.00;;;3.40;;
12603;SDS011;6367;52.508;13.284;2023-10-08T06:15:40;7.37;;;3.33;;
12603;SDS011;6367;52.508;13.284;2023-10-08T06:18:25;5.27;;;3.70;;
12603;SDS011;6367;52.508;13.284;2023-10-08T06:20:52;6.07;;;3.20;;
12603;SDS011;6367;52.508;13.284;2023-10-08T06:23:24;8.83;;;3.63;;
12603;SDS011;6367;52.508;13.284;2023-10-08T06:25:50;6.77;;;3.43;;
12603;SDS011;6367;52.508;13.284;2023-10-08T06:28:43;4.03;;;2.70;;
12603;SDS011;6367;52.508;13.284;2023-10-08T06:31:10;5.43;;;2.50;;
12603;SDS011;6367;52.508;13.284;2023-10-08T06:33:42;5.07;;;2.90;;
12603;SDS011;6367;52.508;13.284;2023-10-08T06:36:09;7.90;;;3.40;;
12603;SDS011;6367;52.508;13.284;2023-10-08T06:38:36;7.20;;;3.40;;
12603;SDS011;6367;52.508;13.284;2023-10-08T06:41:03;4.50;;;3.10;;
12603;SDS011;6367;52.508;13.284;2023-10-08T06:43:56;9.60;;;3.47;;
12603;SDS011;6367;52.508;13.284;2023-10-08T06:46:28;9.00;;;3.50;;
12603;SDS011;6367;52.508;13.284;2023-10-08T06:48:58;6.57;;;2.80;;
12603;SDS011;6367;52.508;13.284;2023-10-08T06:51:24;10.60;;;3.60;;
12603;SDS011;6367;52.508;13.284;2023-10-08T06:53:51;6.03;;;2.97;;
12603;SDS011;6367;52.508;13.284;2023-10-08T06:56:17;4.73;;;3.27;;
12603;SDS011;6367;52.508;13.284;2023-10-08T06:58:44;5.63;;;3.23;;
12603;SDS011;6367;52.508;13.284;2023-10-08T07:01:18;5.60;;;3.43;;
12603;SDS011;6367;52.508;13.284;2023-10-08T07:03:49;8.30;;;3.73;;
12603;SDS011;6367;52.508;13.284;2023-10-08T07:06:22;6.13;;;3.27;;
12603;SDS011;6367;52.508;13.284;2023-10-08T07:08:56;8.30;;;2.83;;
12603;SDS011;6367;52.508;13.284;2023-10-08T07:11:24;2.90;;;2.50;;
12603;SDS011;6367;52.508;13.284;2023-10-08T07:13:54;5.73;;;2.97;;
12603;SDS011;6367;52.508;13.284;2023-10-08T07:16:21;4.43;;;2.80;;
12603;SDS011;6367;52.508;13.284;2023-10-08T07:18:46;8.10;;;3.07;;
12603;SDS011;6367;52.508;13.284;2023-10-08T07:21:20;3.63;;;2.50;;
12603;SDS011;6367;52.508;13.284;2023-10-08T07:23:54;2.90;;;2.10;;
12603;SDS011;6367;52.508;13.284;2023-10-08T07:26:29;4.00;;;2.60;;
12603;SDS011;6367;52.508;13.284;2023-10-08T07:29:01;5.53;;;3.03;;
12603;SDS011;6367;52.508;13.284;2023-10-08T07:31:34;4.93;;;2.53;;
12603;SDS011;6367;52.508;13.284;2023-10-08T07:34:01;4.47;;;2.30;;
12603;SDS011;6367;52.508;13.284;2023-10-08T07:36:44;5.33;;;2.20;;
12603;SDS011;6367;52.508;13.284;2023-10-08T07:39:18;2.10;;;1.33;;
12603;SDS011;6367;52.508;13.284;2023-10-08T07:42:07;2.77;;;1.50;;
12603;SDS011;6367;52.508;13.284;2023-10-08T07:44:33;4.40;;;2.13;;
12603;SDS011;6367;52.508;13.284;2023-10-08T07:47:00;3.40;;;2.03;;
12603;SDS011;6367;52.508;13.284;2023-10-08T07:49:30;3.53;;;1.90;;
12603;SDS011;6367;52.508;13.284;2023-10-08T07:51:56;3.80;;;1.90;;
12603;SDS011;6367;52.508;13.284;2023-10-08T07:54:24;2.20;;;1.70;;
12603;SDS011;6367;52.508;13.284;2023-10-08T07:56:54;6.13;;;2.20;;
12603;SDS011;6367;52.508;13.284;2023-10-08T07:59:33;3.97;;;2.10;;
12603;SDS011;6367;52.508;13.284;2023-10-08T08:02:03;4.83;;;2.60;;
12603;SDS011;6367;52.508;13.284;2023-10-08T08:04:35;5.30;;;2.00;;
12603;SDS011;6367;52.508;13.284;2023-10-08T08:07:01;4.97;;;2.20;;
12603;SDS011;6367;52.508;13.284;2023-10-08T08:09:29;6.90;;;2.30;;
12603;SDS011;6367;52.508;13.284;2023-10-08T08:11:55;3.80;;;1.90;;
12603;SDS011;6367;52.508;13.284;2023-10-08T08:14:22;2.23;;;1.87;;
12603;SDS011;6367;52.508;13.284;2023-10-08T08:16:50;3.10;;;1.43;;
12603;SDS011;6367;52.508;13.284;2023-10-08T08:19:16;4.80;;;1.67;;
12603;SDS011;6367;52.508;13.284;2023-10-08T08:21:49;4.17;;;1.60;;
12603;SDS011;6367;52.508;13.284;2023-10-08T08:24:17;2.20;;;1.60;;
12603;SDS011;6367;52.508;13.284;2023-10-08T08:26:54;3.53;;;1.33;;
12603;SDS011;6367;52.508;13.284;2023-10-08T08:29:32;3.00;;;2.43;;
12603;SDS011;6367;52.508;13.284;2023-10-08T08:32:09;2.03;;;1.67;;
12603;SDS011;6367;52.508;13.284;2023-10-08T08:34:37;1.53;;;1.20;;
12603;SDS011;6367;52.508;13.284;2023-10-08T08:37:08;4.80;;;1.53;;
12603;SDS011;6367;52.508;13.284;2023-10-08T08:39:38;3.40;;;1.63;;
12603;SDS011;6367;52.508;13.284;2023-10-08T08:42:04;1.60;;;1.10;;
12603;SDS011;6367;52.508;13.284;2023-10-08T08:44:31;3.10;;;1.93;;
12603;SDS011;6367;52.508;13.284;2023-10-08T08:46:58;2.53;;;1.57;;
12603;SDS011;6367;52.508;13.284;2023-10-08T08:49:29;3.00;;;2.00;;
12603;SDS011;6367;52.508;13.284;2023-10-08T08:52:02;2.00;;;1.30;;
12603;SDS011;6367;52.508;13.284;2023-10-08T08:54:29;1.53;;;1.10;;
12603;SDS011;6367;52.508;13.284;2023-10-08T08:56:58;2.10;;;1.10;;
12603;SDS011;6367;52.508;13.284;2023-10-08T08:59:29;2.93;;;1.33;;
12603;SDS011;6367;52.508;13.284;2023-10-08T09:01:59;1.97;;;1.40;;
12603;SDS011;6367;52.508;13.284;2023-10-08T09:04:29;1.40;;;1.20;;
12603;SDS011;6367;52.508;13.284;2023-10-08T09:06:56;1.40;;;0.97;;
12603;SDS011;6367;52.508;13.284;2023-10-08T09:09:29;2.40;;;1.30;;
12603;SDS011;6367;52.508;13.284;2023-10-08T09:11:56;3.20;;;1.63;;
12603;SDS011;6367;52.508;13.284;2023-10-08T09:14:23;3.40;;;1.13;;
12603;SDS011;6367;52.508;13.284;2023-10-08T09:16:57;2.73;;;1.50;;
12603;SDS011;6367;52.508;13.284;2023-10-08T09:19:24;1.30;;;1.10;;
12603;SDS011;6367;52.508;13.284;2023-10-08T09:24:33;5.40;;;1.80;;
12603;SDS011;6367;52.508;13.284;2023-10-08T09:27:02;3.80;;;2.73;;
12603;SDS011;6367;52.508;13.284;2023-10-08T09:29:28;3.07;;;1.60;;
12603;SDS011;6367;52.508;13.284;2023-10-08T09:31:58;3.33;;;1.80;;
12603;SDS011;6367;52.508;13.284;2023-10-08T09:34:28;1.20;;;1.00;;
12603;SDS011;6367;52.508;13.284;2023-10-08T09:36:58;1.40;;;1.30;;
12603;SDS011;6367;52.508;13.284;2023-10-08T09:39:28;1.87;;;1.37;;
12603;SDS011;6367;52.508;13.284;2023-10-08T09:41:59;2.13;;;1.30;;
12603;SDS011;6367;52.508;13.284;2023-10-08T09:44:27;2.23;;;1.57;;
12603;SDS011;6367;52.508;13.284;2023-10-08T09:47:07;2.57;;;1.43;;
12603;SDS011;6367;52.508;13.284;2023-10-08T09:49:39;1.80;;;1.00;;
12603;SDS011;6367;52.508;13.284;2023-10-08T09:52:09;2.13;;;1.00;;
12603;SDS011;6367;52.508;13.284;2023-10-08T09:54:48;1.20;;;1.10;;
12603;SDS011;6367;52.508;13.284;2023-10-08T09:57:21;1.53;;;1.13;;
12603;SDS011;6367;52.508;13.284;2023-10-08T09:59:50;1.10;;;0.97;;
12603;SDS011;6367;52.508;13.284;2023-10-08T10:02:17;1.60;;;0.93;;
12603;SDS011;6367;52.508;13.284;2023-10-08T10:04:47;1.60;;;0.90;;
12603;SDS011;6367;52.508;13.284;2023-10-08T10:07:19;2.30;;;1.30;;
12603;SDS011;6367;52.508;13.284;2023-10-08T10:09:46;1.40;;;0.90;;
12603;SDS011;6367;52.508;13.284;2023-10-08T10:12:24;1.13;;;0.90;;
12603;SDS011;6367;52.508;13.284;2023-10-08T10:14:54;1.27;;;1.10;;
12603;SDS011;6367;52.508;13.284;2023-10-08T10:17:21;1.40;;;1.10;;
12603;SDS011;6367;52.508;13.284;2023-10-08T10:19:57;0.90;;;0.80;;
12603;SDS011;6367;52.508;13.284;2023-10-08T10:22:30;1.77;;;1.00;;
12603;SDS011;6367;52.508;13.284;2023-10-08T10:24:58;1.33;;;1.03;;
12603;SDS011;6367;52.508;13.284;2023-10-08T10:27:28;1.30;;;1.03;;
12603;SDS011;6367;52.508;13.284;2023-10-08T10:30:04;3.13;;;1.50;;
12603;SDS011;6367;52.508;13.284;2023-10-08T10:32:33;1.30;;;1.00;;
12603;SDS011;6367;52.508;13.284;2023-10-08T10:35:00;1.70;;;1.13;;
12603;SDS011;6367;52.508;13.284;2023-10-08T10:37:28;2.57;;;1.20;;
12603;SDS011;6367;52.508;13.284;2023-10-08T10:40:06;1.27;;;1.10;;
12603;SDS011;6367;52.508;13.284;2023-10-08T10:42:36;2.03;;;1.07;;
12603;SDS011;6367;52.508;13.284;2023-10-08T10:45:12;1.63;;;1.00;;
12603;SDS011;6367;52.508;13.284;2023-10-08T10:47:59;1.80;;;1.20;;
12603;SDS011;6367;52.508;13.284;2023-10-08T10:50:37;1.43;;;1.00;;
12603;SDS011;6367;52.508;13.284;2023-10-08T10:53:13;1.90;;;1.10;;
12603;SDS011;6367;52.508;13.284;2023-10-08T10:55:42;1.20;;;1.10;;
12603;SDS011;6367;52.508;13.284;2023-10-08T10:58:23;1.00;;;0.90;;
12603;SDS011;6367;52.508;13.284;2023-10-08T11:00:50;1.47;;;0.90;;
12603;SDS011;6367;52.508;13.284;2023-10-08T11:03:26;1.33;;;0.90;;
12603;SDS011;6367;52.508;13.284;2023-10-08T11:05:57;1.10;;;0.97;;
12603;SDS011;6367;52.508;13.284;2023-10-08T11:08:25;1.20;;;0.90;;
12603;SDS011;6367;52.508;13.284;2023-10-08T11:10:56;1.97;;;1.30;;
12603;SDS011;6367;52.508;13.284;2023-10-08T11:13:23;1.23;;;0.97;;
12603;SDS011;6367;52.508;13.284;2023-10-08T11:15:53;1.90;;;1.00;;
12603;SDS011;6367;52.508;13.284;2023-10-08T11:18:23;3.47;;;1.20;;
12603;SDS011;6367;52.508;13.284;2023-10-08T11:20:50;2.00;;;1.00;;
12603;SDS011;6367;52.508;13.284;2023-10-08T11:23:32;1.53;;;1.20;;
12603;SDS011;6367;52.508;13.284;2023-10-08T11:26:00;1.37;;;1.20;;
12603;SDS011;6367;52.508;13.284;2023-10-08T11:28:37;1.63;;;1.40;;
12603;SDS011;6367;52.508;13.284;2023-10-08T11:31:07;1.40;;;1.10;;
12603;SDS011;6367;52.508;13.284;2023-10-08T11:33:43;2.10;;;1.40;;
12603;SDS011;6367;52.508;13.284;2023-10-08T11:36:19;2.37;;;1.23;;
12603;SDS011;6367;52.508;13.284;2023-10-08T11:38:55;2.93;;;1.37;;
12603;SDS011;6367;52.508;13.284;2023-10-08T11:41:32;1.93;;;1.20;;
12603;SDS011;6367;52.508;13.284;2023-10-08T11:44:14;3.43;;;1.40;;
12603;SDS011;6367;52.508;13.284;2023-10-08T11:46:44;1.50;;;1.20;;
12603;SDS011;6367;52.508;13.284;2023-10-08T11:49:10;1.13;;;1.00;;
12603;SDS011;6367;52.508;13.284;2023-10-08T11:51:43;1.40;;;0.97;;
12603;SDS011;6367;52.508;13.284;2023-10-08T11:54:12;2.03;;;1.33;;
12603;SDS011;6367;52.508;13.284;2023-10-08T11:56:39;2.27;;;1.30;;
12603;SDS011;6367;52.508;13.284;2023-10-08T11:59:05;2.20;;;0.90;;
12603;SDS011;6367;52.508;13.284;2023-10-08T12:01:34;0.90;;;0.90;;
12603;SDS011;6367;52.508;13.284;2023-10-08T12:04:01;1.27;;;1.07;;
12603;SDS011;6367;52.508;13.284;2023-10-08T12:06:27;2.50;;;1.10;;
12603;SDS011;6367;52.508;13.284;2023-10-08T12:08:58;1.23;;;1.10;;
12603;SDS011;6367;52.508;13.284;2023-10-08T12:11:25;1.53;;;1.03;;
12603;SDS011;6367;52.508;13.284;2023-10-08T12:13:56;1.97;;;1.00;;
12603;SDS011;6367;52.508;13.284;2023-10-08T12:16:25;3.33;;;1.40;;
12603;SDS011;6367;52.508;13.284;2023-10-08T12:18:54;1.70;;;1.10;;
12603;SDS011;6367;52.508;13.284;2023-10-08T12:21:27;4.57;;;1.37;;
12603;SDS011;6367;52.508;13.284;2023-10-08T12:23:59;1.73;;;0.80;;
12603;SDS011;6367;52.508;13.284;2023-10-08T12:26:30;2.57;;;1.30;;
12603;SDS011;6367;52.508;13.284;2023-10-08T12:28:56;1.93;;;1.20;;
12603;SDS011;6367;52.508;13.284;2023-10-08T12:31:22;1.10;;;1.00;;
12603;SDS011;6367;52.508;13.284;2023-10-08T12:33:52;1.10;;;1.00;;
12603;SDS011;6367;52.508;13.284;2023-10-08T12:36:24;1.20;;;1.10;;
12603;SDS011;6367;52.508;13.284;2023-10-08T12:38:57;1.40;;;1.30;;
12603;SDS011;6367;52.508;13.284;2023-10-08T12:41:24;2.20;;;1.27;;
12603;SDS011;6367;52.508;13.284;2023-10-08T12:43:53;2.00;;;1.23;;
12603;SDS011;6367;52.508;13.284;2023-10-08T12:46:19;3.33;;;1.07;;
12603;SDS011;6367;52.508;13.284;2023-10-08T12:48:52;1.17;;;1.07;;
12603;SDS011;6367;52.508;13.284;2023-10-08T12:51:22;1.93;;;1.10;;
12603;SDS011;6367;52.508;13.284;2023-10-08T12:53:50;1.50;;;1.10;;
12603;SDS011;6367;52.508;13.284;2023-10-08T12:56:31;1.40;;;1.00;;
12603;SDS011;6367;52.508;13.284;2023-10-08T12:59:00;2.00;;;1.00;;
12603;SDS011;6367;52.508;13.284;2023-10-08T13:01:29;1.00;;;0.80;;
12603;SDS011;6367;52.508;13.284;2023-10-08T13:03:55;2.60;;;1.23;;
12603;SDS011;6367;52.508;13.284;2023-10-08T13:06:32;1.63;;;0.90;;
12603;SDS011;6367;52.508;13.284;2023-10-08T13:09:02;1.53;;;0.97;;
12603;SDS011;6367;52.508;13.284;2023-10-08T13:11:34;1.20;;;1.10;;
12603;SDS011;6367;52.508;13.284;2023-10-08T13:14:00;1.40;;;1.10;;
12603;SDS011;6367;52.508;13.284;2023-10-08T13:16:26;1.20;;;0.90;;
12603;SDS011;6367;52.508;13.284;2023-10-08T13:19:02;1.47;;;1.20;;
12603;SDS011;6367;52.508;13.284;2023-10-08T13:21:28;1.30;;;1.20;;
12603;SDS011;6367;52.508;13.284;2023-10-08T13:23:56;1.10;;;0.90;;
12603;SDS011;6367;52.508;13.284;2023-10-08T13:26:24;0.90;;;0.90;;
12603;SDS011;6367;52.508;13.284;2023-10-08T13:28:57;0.80;;;0.80;;
12603;SDS011;6367;52.508;13.284;2023-10-08T13:31:23;2.00;;;1.00;;
12603;SDS011;6367;52.508;13.284;2023-10-08T13:33:50;1.10;;;1.00;;
12603;SDS011;6367;52.508;13.284;2023-10-08T13:36:17;2.20;;;1.20;;
12603;SDS011;6367;52.508;13.284;2023-10-08T13:38:43;1.40;;;0.90;;
12603;SDS011;6367;52.508;13.284;2023-10-08T13:41:11;2.13;;;1.20;;
12603;SDS011;6367;52.508;13.284;2023-10-08T13:43:49;1.50;;;1.10;;
12603;SDS011;6367;52.508;13.284;2023-10-08T13:46:24;1.60;;;1.33;;
12603;SDS011;6367;52.508;13.284;2023-10-08T13:48:50;2.43;;;1.07;;
12603;SDS011;6367;52.508;13.284;2023-10-08T13:51:16;2.60;;;1.30;;
12603;SDS011;6367;52.508;13.284;2023-10-08T13:53:51;1.50;;;1.10;;
12603;SDS011;6367;52.508;13.284;2023-10-08T13:56:28;1.40;;;1.20;;
12603;SDS011;6367;52.508;13.284;2023-10-08T13:58:57;1.40;;;1.00;;
12603;SDS011;6367;52.508;13.284;2023-10-08T14:01:40;1.40;;;1.30;;
12603;SDS011;6367;52.508;13.284;2023-10-08T14:04:10;1.03;;;0.93;;
12603;SDS011;6367;52.508;13.284;2023-10-08T14:06:38;1.37;;;1.00;;
12603;SDS011;6367;52.508;13.284;2023-10-08T14:09:07;1.90;;;1.10;;
12603;SDS011;6367;52.508;13.284;2023-10-08T14:11:34;1.87;;;1.10;;
12603;SDS011;6367;52.508;13.284;2023-10-08T14:14:00;1.40;;;1.07;;
12603;SDS011;6367;52.508;13.284;2023-10-08T14:16:35;1.53;;;1.20;;
12603;SDS011;6367;52.508;13.284;2023-10-08T14:19:07;1.03;;;0.93;;
12603;SDS011;6367;52.508;13.284;2023-10-08T14:21:37;1.40;;;1.10;;
12603;SDS011;6367;52.508;13.284;2023-10-08T14:24:14;1.27;;;1.00;;
12603;SDS011;6367;52.508;13.284;2023-10-08T14:26:40;2.40;;;1.10;;
12603;SDS011;6367;52.508;13.284;2023-10-08T14:29:07;2.10;;;1.30;;
12603;SDS011;6367;52.508;13.284;2023-10-08T14:31:39;1.80;;;1.10;;
12603;SDS011;6367;52.508;13.284;2023-10-08T14:34:07;1.90;;;1.20;;
12603;SDS011;6367;52.508;13.284;2023-10-08T14:36:48;1.53;;;1.10;;
12603;SDS011;6367;52.508;13.284;2023-10-08T14:39:33;2.90;;;1.20;;
12603;SDS011;6367;52.508;13.284;2023-10-08T14:42:18;2.47;;;1.10;;
12603;SDS011;6367;52.508;13.284;2023-10-08T14:45:03;1.50;;;0.97;;
12603;SDS011;6367;52.508;13.284;2023-10-08T14:47:39;1.33;;;1.10;;
12603;SDS011;6367;52.508;13.284;2023-10-08T14:50:05;1.10;;;1.00;;
12603;SDS011;6367;52.508;13.284;2023-10-08T14:52:40;1.30;;;1.10;;
12603;SDS011;6367;52.508;13.284;2023-10-08T14:55:07;1.40;;;1.30;;
12603;SDS011;6367;52.508;13.284;2023-10-08T14:57:33;1.37;;;1.20;;
12603;SDS011;6367;52.508;13.284;2023-10-08T14:59:59;1.53;;;1.10;;
12603;SDS011;6367;52.508;13.284;2023-10-08T15:02:24;1.87;;;1.10;;
12603;SDS011;6367;52.508;13.284;2023-10-08T15:04:54;2.23;;;1.30;;
12603;SDS011;6367;52.508;13.284;2023-10-08T15:07:21;1.43;;;1.00;;
12603;SDS011;6367;52.508;13.284;2023-10-08T15:09:47;1.47;;;1.33;;
12603;SDS011;6367;52.508;13.284;2023-10-08T15:12:14;2.10;;;1.03;;
12603;SDS011;6367;52.508;13.284;2023-10-08T15:14:42;1.60;;;1.50;;
12603;SDS011;6367;52.508;13.284;2023-10-08T15:17:08;1.47;;;1.23;;
12603;SDS011;6367;52.508;13.284;2023-10-08T15:19:34;1.23;;;1.00;;
12603;SDS011;6367;52.508;13.284;2023-10-08T15:22:00;1.57;;;1.10;;